Time;durP1;ratioP1;P1;durP2;ratioP2;P2;SDS_P1;SDS_P2;PMS_P1;PMS_P2;Temp;Humidity;BMP_temperature;BMP_pressure;BME280_temperature;BME280_humidity;BME280_pressure;Samples;Min_cycle;Max_cycle;Signal;HPM_P1;HPM_P2
2024/04/10 00:01:11;;;;;;;5.50;2.67;;;;;;;14.40;41.03;95030.94;5499673;25;20004;-74
2024/04/10 00:03:37;;;;;;;5.85;3.20;;;;;;;14.42;41.26;95023.69;5503219;25;19990;-74
2024/04/10 00:06:04;;;;;;;4.45;2.75;;;;;;;14.36;41.53;95022.78;5501259;25;19990;-74
2024/04/10 00:08:31;;;;;;;5.70;2.60;;;;;;;14.33;41.20;95021.69;5500717;26;20425;-75
2024/04/10 00:10:56;;;;;;;3.30;2.25;;;;;;;14.30;41.43;95019.09;5502487;25;20467;-76
2024/04/10 00:13:22;;;;;;;5.10;2.83;;;;;;;14.23;41.60;95017.38;5499665;25;20000;-75
2024/04/10 00:16:04;;;;;;;5.82;2.83;;;;;;;14.25;41.46;95020.47;5502845;25;20000;-76
2024/04/10 00:18:31;;;;;;;5.82;2.45;;;;;;;14.19;41.41;95013.22;5488413;25;19991;-75
2024/04/10 00:20:56;;;;;;;3.63;2.42;;;;;;;14.17;41.45;95012.94;5485624;26;20005;-74
2024/04/10 00:23:22;;;;;;;5.30;2.38;;;;;;;14.12;41.60;95013.53;5453774;26;19998;-74
2024/04/10 00:25:55;;;;;;;5.82;2.72;;;;;;;14.07;41.73;95015.66;5454104;26;20022;-74
2024/04/10 00:28:21;;;;;;;5.60;2.45;;;;;;;14.04;42.27;95013.81;5454974;26;20005;-74
2024/04/10 00:30:49;;;;;;;9.52;2.70;;;;;;;14.02;42.15;95007.97;5485026;26;20433;-74
2024/04/10 00:33:15;;;;;;;6.00;2.42;;;;;;;14.05;41.74;95003.53;5487302;26;20373;-74
2024/04/10 00:35:40;;;;;;;9.73;2.90;;;;;;;14.01;42.02;95006.44;5483322;26;20040;-74
2024/04/10 00:38:06;;;;;;;4.63;2.95;;;;;;;14.11;41.68;95020.25;5486799;26;20086;-75
2024/04/10 00:40:32;;;;;;;6.13;2.90;;;;;;;14.02;41.88;95013.50;5483889;26;20005;-75
2024/04/10 00:43:02;;;;;;;5.03;2.72;;;;;;;13.96;42.18;95015.34;5484331;26;19994;-76
2024/04/10 00:45:28;;;;;;;9.07;3.58;;;;;;;13.97;42.12;95016.09;5485098;26;20056;-76
2024/04/10 00:47:53;;;;;;;5.68;3.05;;;;;;;13.96;42.14;95014.56;5483351;26;19990;-74
2024/04/10 00:50:19;;;;;;;8.93;3.22;;;;;;;13.99;42.06;95017.19;5454765;26;20421;-76
2024/04/10 00:52:44;;;;;;;7.88;2.88;;;;;;;13.94;42.42;95012.28;5452434;26;20025;-75
2024/04/10 00:55:13;;;;;;;9.10;3.20;;;;;;;13.90;42.23;95014.41;5484560;26;20433;-75
2024/04/10 00:57:38;;;;;;;6.35;2.63;;;;;;;13.91;42.71;95015.94;5453492;26;20035;-76
2024/04/10 01:00:04;;;;;;;9.57;3.10;;;;;;;13.83;42.81;95011.94;5484425;26;20665;-75
2024/04/10 01:02:29;;;;;;;6.78;3.65;;;;;;;13.73;42.79;95002.06;5485874;26;19994;-75
2024/04/10 01:04:54;;;;;;;6.20;2.83;;;;;;;13.76;43.19;95018.50;5485231;26;20326;-75
2024/04/10 01:07:20;;;;;;;5.22;2.88;;;;;;;13.73;43.36;95011.13;5486417;26;19994;-75
2024/04/10 01:09:45;;;;;;;5.95;2.40;;;;;;;13.67;43.80;94995.59;5485148;26;19994;-75
2024/04/10 01:12:10;;;;;;;7.43;2.92;;;;;;;13.65;43.84;95001.59;5486755;26;20292;-76
2024/04/10 01:14:36;;;;;;;7.78;2.65;;;;;;;13.63;43.49;94997.72;5483166;26;19994;-75
2024/04/10 01:17:01;;;;;;;7.95;2.90;;;;;;;13.59;43.59;94999.84;5484479;26;20459;-75
2024/04/10 01:19:27;;;;;;;8.05;2.92;;;;;;;13.50;43.63;94993.09;5483888;26;20005;-75
2024/04/10 01:21:52;;;;;;;5.93;2.90;;;;;;;13.53;43.93;94994.94;5485974;26;20053;-75
2024/04/10 01:24:17;;;;;;;6.97;3.20;;;;;;;13.48;44.33;94992.00;5486380;26;20021;-74
2024/04/10 01:26:43;;;;;;;5.85;2.88;;;;;;;13.44;44.14;94994.13;5484832;26;20005;-73
2024/04/10 01:29:09;;;;;;;5.22;2.72;;;;;;;13.45;44.23;94993.69;5484329;26;20385;-74
2024/04/10 01:31:34;;;;;;;4.25;3.08;;;;;;;13.46;44.62;94988.91;5484561;26;19997;-73
2024/04/10 01:33:59;;;;;;;5.15;2.72;;;;;;;13.33;44.88;94977.97;5486072;26;20432;-74
2024/04/10 01:36:25;;;;;;;11.05;3.17;;;;;;;13.39;44.61;94995.50;5484126;26;19994;-73
2024/04/10 01:38:50;;;;;;;4.93;2.55;;;;;;;13.36;44.60;94985.38;5453527;26;19994;-75
2024/04/10 01:41:16;;;;;;;8.27;3.30;;;;;;;13.35;44.74;94986.56;5485645;26;20069;-74
2024/04/10 01:43:41;;;;;;;4.90;2.80;;;;;;;13.29;44.75;94980.88;5483326;26;20013;-75
2024/04/10 01:46:07;;;;;;;5.13;2.60;;;;;;;13.22;45.02;94978.38;5485560;26;19997;-75
2024/04/10 01:48:32;;;;;;;5.30;2.70;;;;;;;13.22;45.03;94986.66;5482422;26;19994;-75
2024/04/10 01:50:59;;;;;;;5.82;2.85;;;;;;;13.24;45.07;94981.47;5483641;26;20009;-75
2024/04/10 01:53:24;;;;;;;4.53;2.55;;;;;;;13.17;44.80;94981.72;5484191;26;20336;-73
2024/04/10 01:55:51;;;;;;;4.93;2.83;;;;;;;13.14;45.22;94984.63;5485834;26;19990;-74
2024/04/10 01:58:17;;;;;;;3.42;2.80;;;;;;;13.05;45.37;94984.56;5483026;26;19994;-74
2024/04/10 02:00:42;;;;;;;5.30;2.90;;;;;;;13.03;45.40;94979.50;5483607;26;20009;-76
2024/04/10 02:03:08;;;;;;;7.35;2.63;;;;;;;12.95;45.39;94975.44;5483868;26;20004;-75
2024/04/10 02:05:33;;;;;;;4.35;2.25;;;;;;;12.90;45.73;94982.34;5483688;26;20345;-75
2024/04/10 02:07:59;;;;;;;6.50;2.85;;;;;;;12.88;45.68;94972.97;5485948;26;19994;-75
2024/04/10 02:10:24;;;;;;;9.05;2.85;;;;;;;12.89;45.70;94977.25;5482473;26;20047;-74
2024/04/10 02:12:49;;;;;;;6.03;2.80;;;;;;;12.84;45.82;94981.38;5484066;26;20030;-74
2024/04/10 02:15:15;;;;;;;4.65;2.47;;;;;;;12.89;45.41;94983.53;5481896;26;19994;-75
2024/04/10 02:17:40;;;;;;;6.95;2.88;;;;;;;12.82;45.54;94980.28;5485930;26;20005;-74
2024/04/10 02:20:07;;;;;;;3.90;2.28;;;;;;;12.77;45.78;94976.13;5482953;26;19998;-74
2024/04/10 02:22:33;;;;;;;5.03;2.58;;;;;;;12.70;45.83;94979.13;5484719;26;20429;-74
2024/04/10 02:24:58;;;;;;;7.97;2.35;;;;;;;12.74;45.75;94975.03;5453482;26;20013;-74
2024/04/10 02:27:23;;;;;;;5.85;2.90;;;;;;;12.71;45.87;94975.16;5483594;26;20005;-74
2024/04/10 02:29:49;;;;;;;6.45;2.60;;;;;;;12.63;46.08;94971.13;5453500;26;20030;-75
2024/04/10 02:32:14;;;;;;;5.50;2.47;;;;;;;12.65;46.00;94971.44;5484070;26;20397;-75
2024/04/10 02:34:40;;;;;;;4.03;2.60;;;;;;;12.58;46.17;94968.94;5453692;26;19994;-76
2024/04/10 02:37:05;;;;;;;4.43;2.58;;;;;;;12.63;45.69;94976.66;5484071;26;20084;-75
2024/04/10 02:39:30;;;;;;;5.28;2.85;;;;;;;12.57;46.27;94975.69;5483579;26;20054;-75
2024/04/10 02:41:56;;;;;;;4.90;2.53;;;;;;;12.53;46.26;94984.06;5484055;26;20006;-76
2024/04/10 02:44:21;;;;;;;3.33;2.22;;;;;;;12.50;46.31;94987.72;5452040;26;20009;-75
2024/04/10 02:46:47;;;;;;;4.43;3.10;;;;;;;12.45;46.54;94980.81;5485309;26;19994;-76
2024/04/10 02:49:12;;;;;;;6.18;2.60;;;;;;;12.45;46.58;94980.03;5483061;26;20369;-75
2024/04/10 02:51:37;;;;;;;6.35;2.40;;;;;;;12.45;46.45;94986.31;5452844;26;19998;-75
2024/04/10 02:54:03;;;;;;;3.50;2.20;;;;;;;12.41;46.61;94991.19;5482904;26;19998;-74
2024/04/10 02:56:29;;;;;;;6.13;2.90;;;;;;;12.40;46.61;94995.16;5483184;26;20045;-74
2024/04/10 02:58:55;;;;;;;4.00;2.38;;;;;;;12.40;46.67;94997.91;5483944;26;20001;-75
2024/04/10 03:01:20;;;;;;;6.18;2.58;;;;;;;12.37;46.69;95000.78;5482012;26;19994;-76
2024/04/10 03:03:45;;;;;;;5.75;2.67;;;;;;;12.38;46.74;95003.09;5482983;26;19994;-77
2024/04/10 03:06:11;;;;;;;7.28;3.15;;;;;;;12.38;46.84;94992.06;5482241;26;19998;-76
2024/04/10 03:08:36;;;;;;;4.60;2.38;;;;;;;12.32;46.75;94995.84;5483098;26;19991;-75
2024/04/10 03:11:04;;;;;;;6.57;3.08;;;;;;;12.29;46.78;94999.50;5481188;26;19998;-76
2024/04/10 03:13:31;;;;;;;6.88;2.90;;;;;;;12.26;46.96;94990.13;5483262;26;20463;-75
2024/04/10 03:15:57;;;;;;;7.25;2.35;;;;;;;12.25;47.08;94993.34;5481799;26;19998;-75
2024/04/10 03:18:22;;;;;;;6.80;2.90;;;;;;;12.21;47.27;94991.50;5484164;26;20002;-76
2024/04/10 03:20:47;;;;;;;4.80;2.70;;;;;;;12.21;47.18;94997.00;5484600;26;20422;-75
2024/04/10 03:23:13;;;;;;;3.33;2.58;;;;;;;12.16;47.50;94994.03;5482717;26;20002;-75
2024/04/10 03:25:38;;;;;;;5.82;2.78;;;;;;;12.16;47.46;94996.78;5483034;26;19991;-75
2024/04/10 03:28:04;;;;;;;7.60;3.00;;;;;;;12.17;47.70;94984.56;5482435;26;20123;-75
2024/04/10 03:30:29;;;;;;;6.28;3.22;;;;;;;12.13;47.42;94992.16;5482872;26;20420;-75
2024/04/10 03:32:55;;;;;;;8.00;3.15;;;;;;;12.11;47.52;94987.09;5482879;26;20023;-75
2024/04/10 03:35:20;;;;;;;5.90;3.42;;;;;;;12.10;47.33;94993.84;5483873;26;19994;-74
2024/04/10 03:37:46;;;;;;;7.13;3.83;;;;;;;12.08;47.38;94990.72;5483247;26;20009;-75
2024/04/10 03:40:11;;;;;;;6.78;3.60;;;;;;;12.06;47.69;94992.41;5482647;26;20009;-75
2024/04/10 03:42:38;;;;;;;9.15;3.72;;;;;;;12.04;48.05;94998.34;5483864;26;20461;-75
2024/04/10 03:45:04;;;;;;;11.77;3.70;;;;;;;12.02;47.55;94991.75;5479863;26;20107;-75
2024/04/10 03:47:29;;;;;;;8.43;3.80;;;;;;;11.95;47.61;94995.50;5483854;26;20066;-75
2024/04/10 03:49:56;;;;;;;8.80;4.18;;;;;;;11.98;47.84;94996.59;5481899;26;20030;-75
2024/04/10 03:52:21;;;;;;;10.68;3.90;;;;;;;12.00;48.17;94994.19;5482067;26;20059;-75
2024/04/10 03:54:46;;;;;;;10.10;3.95;;;;;;;11.95;47.77;94998.28;5485046;26;20145;-75
2024/04/10 03:57:12;;;;;;;6.07;3.63;;;;;;;11.93;47.81;94995.97;5454812;26;19994;-74
2024/04/10 03:59:37;;;;;;;10.80;4.28;;;;;;;11.88;47.96;94990.25;5485797;26;20070;-74
2024/04/10 04:02:03;;;;;;;8.85;3.85;;;;;;;11.83;48.03;94988.06;5484183;26;19998;-75
2024/04/10 04:04:28;;;;;;;16.48;4.35;;;;;;;11.81;48.37;95002.25;5487515;26;20033;-75
2024/04/10 04:06:54;;;;;;;6.47;3.65;;;;;;;11.79;48.59;94999.16;5483521;26;20006;-75
2024/04/10 04:09:19;;;;;;;14.25;5.00;;;;;;;11.73;48.42;95000.91;5487016;26;19994;-75
2024/04/10 04:11:45;;;;;;;9.40;4.40;;;;;;;11.73;48.17;95002.91;5485559;26;20044;-76
2024/04/10 04:14:10;;;;;;;10.82;4.72;;;;;;;11.70;48.32;95007.31;5454845;26;19998;-75
2024/04/10 04:16:35;;;;;;;13.82;5.47;;;;;;;11.72;48.43;94999.38;5484777;26;20086;-75
2024/04/10 04:19:01;;;;;;;12.07;4.70;;;;;;;11.73;48.85;95006.44;5486126;26;19994;-75
2024/04/10 04:21:27;;;;;;;18.80;4.85;;;;;;;11.67;49.03;94995.19;5487167;26;19998;-75
2024/04/10 04:23:53;;;;;;;14.05;5.10;;;;;;;11.72;48.81;95004.13;5483677;26;19998;-75
2024/04/10 04:26:19;;;;;;;10.48;4.32;;;;;;;11.69;48.77;94997.50;5484950;26;20005;-75
2024/04/10 04:28:45;;;;;;;9.68;4.45;;;;;;;11.71;48.65;94995.09;5483809;26;20022;-75
2024/04/10 04:31:11;;;;;;;9.00;4.43;;;;;;;11.69;48.79;95003.78;5485460;26;19990;-74
2024/04/10 04:33:37;;;;;;;10.45;4.05;;;;;;;11.75;49.12;95012.25;5486008;26;20749;-74
2024/04/10 04:36:02;;;;;;;14.02;4.93;;;;;;;11.74;49.21;95018.97;5484961;26;19994;-75
2024/04/10 04:38:28;;;;;;;16.65;5.32;;;;;;;11.74;49.19;95018.22;5486901;26;20343;-75
2024/04/10 04:40:53;;;;;;;18.48;5.05;;;;;;;11.73;49.42;95019.44;5483562;26;19990;-74
2024/04/10 04:43:18;;;;;;;23.23;5.75;;;;;;;11.71;49.51;95019.88;5485135;26;20006;-75
2024/04/10 04:45:44;;;;;;;16.23;5.53;;;;;;;11.76;48.84;95022.06;5483504;26;20036;-75
2024/04/10 04:48:10;;;;;;;31.23;7.03;;;;;;;11.75;49.56;95022.50;5486780;26;19991;-77
2024/04/10 04:50:41;;;;;;;27.50;6.85;;;;;;;11.73;49.49;95027.69;5483445;26;20289;-76
2024/04/10 04:53:10;;;;;;;21.42;6.22;;;;;;;11.77;49.50;95031.88;5486840;26;20001;-75
2024/04/10 04:55:37;;;;;;;21.73;6.38;;;;;;;11.81;49.62;95029.78;5484647;26;20005;-76
2024/04/10 04:58:03;;;;;;;16.15;5.93;;;;;;;11.82;49.32;95028.59;5485767;26;19998;-75
2024/04/10 05:00:29;;;;;;;31.58;6.78;;;;;;;11.82;49.43;95027.84;5486297;26;20025;-75
2024/04/10 05:02:55;;;;;;;42.55;8.10;;;;;;;11.91;49.67;95028.69;5484574;26;20022;-76
2024/04/10 05:05:21;;;;;;;33.22;7.15;;;;;;;11.93;49.29;95033.78;5484128;26;20470;-75
2024/04/10 05:07:48;;;;;;;26.90;6.70;;;;;;;12.00;48.94;95038.28;5484699;26;19998;-75
2024/04/10 05:10:14;;;;;;;27.77;5.55;;;;;;;12.02;48.93;95042.13;5484558;26;19993;-76
2024/04/10 05:12:41;;;;;;;15.63;5.45;;;;;;;12.08;48.74;95043.09;5483439;26;20002;-76
2024/04/10 05:15:07;;;;;;;18.17;5.45;;;;;;;12.13;48.32;95044.53;5484184;26;19994;-76
2024/04/10 05:17:33;;;;;;;8.20;4.53;;;;;;;12.21;47.95;95035.59;5484990;26;20441;-76
2024/04/10 05:19:58;;;;;;;11.15;4.68;;;;;;;12.23;47.80;95037.88;5452958;26;20009;-77
2024/04/10 05:22:24;;;;;;;6.63;4.70;;;;;;;12.31;47.58;95041.94;5454230;26;19994;-76
2024/04/10 05:24:49;;;;;;;16.92;6.05;;;;;;;12.35;47.71;95036.31;5452731;26;19998;-75
2024/04/10 05:27:23;;;;;;;13.45;4.90;;;;;;;12.45;47.35;95040.69;5453932;26;19994;-76
2024/04/10 05:29:59;;;;;;;16.88;5.40;;;;;;;12.46;47.55;95036.72;5485236;26;20009;-76
2024/04/10 05:32:25;;;;;;;14.55;5.45;;;;;;;12.51;47.52;95040.91;5483551;26;20066;-76
2024/04/10 05:34:52;;;;;;;14.45;7.28;;;;;;;12.56;47.56;95048.56;5484507;26;20074;-76
2024/04/10 05:37:17;;;;;;;16.83;6.65;;;;;;;12.59;47.40;95042.94;5452168;26;20453;-76
2024/04/10 05:39:43;;;;;;;12.45;6.82;;;;;;;12.65;47.43;95054.94;5484669;26;20022;-76
2024/04/10 05:42:08;;;;;;;16.08;6.95;;;;;;;12.71;47.45;95052.38;5482330;26;20365;-75
2024/04/10 05:44:33;;;;;;;15.38;7.60;;;;;;;12.82;46.95;95057.53;5486118;26;20000;-75
2024/04/10 05:47:01;;;;;;;18.40;8.07;;;;;;;12.90;46.62;95056.03;5482698;26;20009;-76
2024/04/10 05:49:26;;;;;;;15.73;7.50;;;;;;;12.89;46.66;95054.50;5485557;26;20026;-74
2024/04/10 05:51:52;;;;;;;15.35;7.22;;;;;;;12.92;46.73;95051.63;5485240;26;20328;-76
2024/04/10 05:54:17;;;;;;;13.98;7.72;;;;;;;12.91;47.00;95046.56;5484423;26;19994;-75
2024/04/10 05:56:42;;;;;;;15.48;7.80;;;;;;;12.99;46.78;95056.88;5485769;26;20009;-75
2024/04/10 05:59:08;;;;;;;11.98;7.05;;;;;;;13.03;46.34;95057.53;5483596;26;20009;-75
2024/04/10 06:01:34;;;;;;;14.95;6.97;;;;;;;13.07;46.34;95056.63;5485650;26;20022;-75
2024/04/10 06:04:00;;;;;;;16.75;6.93;;;;;;;13.14;46.44;95054.38;5482330;26;20001;-74
2024/04/10 06:06:25;;;;;;;15.70;9.18;;;;;;;13.16;46.71;95053.94;5483310;26;20026;-75
2024/04/10 06:08:51;;;;;;;14.35;7.05;;;;;;;13.28;46.15;95044.81;5483016;26;19998;-76
2024/04/10 06:11:17;;;;;;;14.13;8.13;;;;;;;13.33;45.89;95052.53;5484918;26;20433;-76
2024/04/10 06:13:46;;;;;;;13.20;7.75;;;;;;;13.34;45.93;95048.53;5483877;26;20005;-75
2024/04/10 06:16:11;;;;;;;15.38;8.27;;;;;;;13.33;46.20;95043.47;5451121;26;19994;-75
2024/04/10 06:18:37;;;;;;;17.20;7.80;;;;;;;13.41;46.14;95042.75;5453589;26;20013;-75
2024/04/10 06:21:03;;;;;;;10.85;7.35;;;;;;;13.49;46.07;95057.84;5482153;26;20009;-75
2024/04/10 06:23:31;;;;;;;18.20;7.28;;;;;;;13.54;45.91;95046.19;5485358;26;20018;-75
2024/04/10 06:25:56;;;;;;;13.63;8.25;;;;;;;13.55;45.59;95047.72;5482137;26;19998;-75
2024/04/10 06:28:24;;;;;;;12.90;6.82;;;;;;;13.58;45.62;95043.28;5452694;26;20005;-76
2024/04/10 06:31:00;;;;;;;8.45;5.75;;;;;;;13.69;45.64;95048.41;5483317;26;20061;-75
2024/04/10 06:33:25;;;;;;;10.75;6.18;;;;;;;13.82;45.49;95051.84;5481404;26;19998;-75
2024/04/10 06:35:50;;;;;;;11.05;7.10;;;;;;;13.88;45.31;95057.50;5485173;26;20009;-75
2024/04/10 06:38:16;;;;;;;12.85;6.18;;;;;;;13.97;44.50;95052.78;5481190;26;19998;-75
2024/04/10 06:40:42;;;;;;;9.27;6.45;;;;;;;14.02;44.55;95049.44;5485142;26;20324;-75
2024/04/10 06:43:07;;;;;;;13.13;6.22;;;;;;;14.08;44.52;95055.13;5481375;26;19998;-76
2024/04/10 06:45:33;;;;;;;10.48;6.10;;;;;;;14.14;44.32;95045.00;5483349;26;20001;-75
2024/04/10 06:47:58;;;;;;;16.27;5.82;;;;;;;14.24;43.81;95051.34;5452064;26;20009;-75
2024/04/10 06:50:25;;;;;;;11.63;5.30;;;;;;;14.26;43.62;95046.09;5481368;26;20009;-75
2024/04/10 06:52:51;;;;;;;12.30;7.05;;;;;;;14.42;43.54;95045.06;5483220;26;20005;-76
2024/04/10 06:55:16;;;;;;;10.65;5.70;;;;;;;14.49;43.31;95045.56;5480594;26;20002;-75
2024/04/10 06:57:41;;;;;;;19.75;6.88;;;;;;;14.65;42.89;95043.72;5484431;26;20013;-76
2024/04/10 07:00:12;;;;;;;9.23;5.22;;;;;;;14.72;42.88;95046.19;5482313;26;20013;-76
2024/04/10 07:02:44;;;;;;;12.35;5.43;;;;;;;14.86;42.53;95049.09;5484446;26;19998;-76
2024/04/10 07:05:10;;;;;;;14.40;5.63;;;;;;;15.02;42.14;95044.47;5482945;26;19998;-76
2024/04/10 07:07:35;;;;;;;16.85;5.45;;;;;;;15.00;42.11;95049.72;5483628;26;20009;-76
2024/04/10 07:10:00;;;;;;;12.55;6.75;;;;;;;15.10;41.87;95048.47;5485140;26;20074;-76
2024/04/10 07:12:26;;;;;;;10.50;5.72;;;;;;;15.22;41.92;95044.00;5482445;26;20006;-75
2024/04/10 07:14:51;;;;;;;13.60;5.18;;;;;;;15.32;41.63;95051.06;5482963;26;20026;-76
2024/04/10 07:17:17;;;;;;;14.88;5.28;;;;;;;15.41;41.42;95046.25;5482303;26;20389;-76
2024/04/10 07:19:42;;;;;;;11.15;4.78;;;;;;;15.51;41.13;95047.00;5484765;26;20005;-76
2024/04/10 07:22:08;;;;;;;12.07;5.15;;;;;;;15.55;40.74;95047.59;5483012;26;20013;-76
2024/04/10 07:24:34;;;;;;;8.25;5.57;;;;;;;15.70;40.71;95035.88;5482576;26;19998;-75
2024/04/10 07:26:59;;;;;;;12.40;5.72;;;;;;;15.77;40.92;95035.53;5483049;26;20047;-76
2024/04/10 07:29:25;;;;;;;16.30;6.35;;;;;;;15.87;40.15;95037.03;5484715;26;20546;-76
2024/04/10 07:31:50;;;;;;;13.98;5.70;;;;;;;16.05;40.20;95036.16;5487664;26;19998;-75
2024/04/10 07:34:17;;;;;;;11.98;5.72;;;;;;;16.17;40.12;95044.28;5483824;26;19994;-76
2024/04/10 07:36:43;;;;;;;11.10;5.90;;;;;;;16.31;39.96;95042.03;5487583;26;19990;-76
2024/04/10 07:39:08;;;;;;;13.43;6.65;;;;;;;16.45;39.46;95038.53;5485555;26;20074;-75
2024/04/10 07:41:34;;;;;;;12.15;5.45;;;;;;;16.50;39.31;95043.44;5455318;26;20046;-76
2024/04/10 07:44:00;;;;;;;11.15;5.32;;;;;;;16.65;39.40;95038.72;5484378;26;19994;-76
2024/04/10 07:46:25;;;;;;;14.82;5.40;;;;;;;16.83;38.96;95040.63;5453723;26;20013;-76
2024/04/10 07:48:55;;;;;;;9.73;5.03;;;;;;;16.90;38.94;95031.16;5485269;26;20005;-76
2024/04/10 07:51:22;;;;;;;8.85;4.88;;;;;;;17.01;38.43;95036.91;5452726;26;20167;-75
2024/04/10 07:53:48;;;;;;;9.40;4.57;;;;;;;17.12;37.90;95037.13;5485732;26;20010;-75
2024/04/10 07:56:14;;;;;;;9.90;4.70;;;;;;;17.22;37.88;95033.00;5452859;26;20010;-76
2024/04/10 07:58:39;;;;;;;10.10;4.55;;;;;;;17.45;37.67;95041.75;5487525;26;20000;-75
2024/04/10 08:01:05;;;;;;;9.05;4.70;;;;;;;17.65;37.54;95041.03;5485817;26;20102;-76
2024/04/10 08:03:31;;;;;;;12.55;4.60;;;;;;;17.83;36.80;95040.84;5486687;26;20039;-76
2024/04/10 08:05:57;;;;;;;8.45;4.32;;;;;;;17.95;36.52;95030.66;5484800;26;19998;-76
2024/04/10 08:08:23;;;;;;;12.38;5.70;;;;;;;18.13;36.53;95033.22;5483335;26;20002;-75
2024/04/10 08:11:02;;;;;;;10.18;5.15;;;;;;;18.37;35.37;95040.63;5486931;26;20008;-75
2024/04/10 08:13:28;;;;;;;10.73;5.63;;;;;;;18.57;34.71;95035.06;5485241;26;20435;-76
2024/04/10 08:15:59;;;;;;;14.68;6.05;;;;;;;18.75;34.87;95040.41;5485220;26;20022;-76
2024/04/10 08:18:28;;;;;;;13.32;6.25;;;;;;;18.95;35.01;95044.41;5483951;26;19994;-76
2024/04/10 08:21:00;;;;;;;15.85;7.18;;;;;;;19.14;34.99;95042.84;5484586;26;20055;-75
2024/04/10 08:23:27;;;;;;;13.30;6.53;;;;;;;19.39;34.57;95043.38;5484855;26;20413;-77
2024/04/10 08:25:53;;;;;;;14.18;6.80;;;;;;;19.56;34.10;95036.69;5452627;26;19998;-74
2024/04/10 08:28:20;;;;;;;11.27;6.00;;;;;;;19.72;33.81;95037.34;5484010;26;20336;-74
2024/04/10 08:30:46;;;;;;;7.97;6.55;;;;;;;19.87;32.76;95029.59;5484422;26;20105;-74
2024/04/10 08:33:12;;;;;;;11.52;5.55;;;;;;;20.10;32.53;95036.88;5486485;26;20378;-76
2024/04/10 08:35:37;;;;;;;8.05;4.65;;;;;;;20.28;31.37;95041.28;5453139;26;20510;-74
2024/04/10 08:38:02;;;;;;;12.70;5.35;;;;;;;20.52;31.58;95031.81;5485343;26;20129;-75
2024/04/10 08:40:30;;;;;;;13.48;4.78;;;;;;;20.80;31.27;95037.53;5485615;26;20005;-75
2024/04/10 08:42:56;;;;;;;11.13;4.93;;;;;;;21.02;30.15;95037.59;5483164;26;20066;-75
2024/04/10 08:45:23;;;;;;;11.82;4.68;;;;;;;21.21;29.44;95043.50;5486144;26;20009;-75
2024/04/10 08:47:49;;;;;;;7.93;3.95;;;;;;;21.47;28.66;95037.75;5482812;26;20004;-75
2024/04/10 08:50:14;;;;;;;16.98;4.93;;;;;;;21.68;28.38;95036.25;5484376;26;20017;-75
2024/04/10 08:52:40;;;;;;;8.65;4.45;;;;;;;21.91;28.60;95033.44;5484846;26;20037;-74
2024/04/10 08:55:06;;;;;;;13.35;4.80;;;;;;;22.18;28.04;95038.28;5486293;26;20010;-75
2024/04/10 08:57:31;;;;;;;10.93;4.25;;;;;;;22.46;28.08;95038.22;5485289;26;20006;-75
2024/04/10 08:59:57;;;;;;;8.13;4.07;;;;;;;22.71;27.34;95033.59;5483154;26;20006;-75
2024/04/10 09:02:22;;;;;;;9.00;3.65;;;;;;;23.04;27.06;95045.94;5485962;26;20002;-75
2024/04/10 09:04:48;;;;;;;12.30;4.10;;;;;;;23.33;26.23;95042.47;5484767;26;20038;-75
2024/04/10 09:07:17;;;;;;;13.60;3.40;;;;;;;23.54;25.44;95033.69;5485702;26;20001;-75
2024/04/10 09:09:42;;;;;;;7.32;3.33;;;;;;;23.82;26.23;95037.09;5484844;26;20090;-75
2024/04/10 09:12:08;;;;;;;16.23;3.45;;;;;;;24.08;25.38;95042.22;5484353;26;20013;-75
2024/04/10 09:14:33;;;;;;;9.40;3.42;;;;;;;24.36;25.38;95041.22;5483303;26;20006;-75
2024/04/10 09:17:03;;;;;;;7.90;2.30;;;;;;;24.59;23.53;95034.09;5484078;26;20002;-75
2024/04/10 09:19:28;;;;;;;3.65;2.47;;;;;;;24.86;23.59;95043.50;5484321;26;20002;-74
2024/04/10 09:21:58;;;;;;;6.25;2.35;;;;;;;25.18;23.49;95042.16;5483178;26;20005;-74
2024/04/10 09:24:28;;;;;;;5.65;1.92;;;;;;;25.45;22.46;95043.78;5453744;26;19994;-75
2024/04/10 09:26:53;;;;;;;5.22;1.80;;;;;;;25.71;21.68;95039.59;5482553;26;20498;-75
2024/04/10 09:29:22;;;;;;;3.90;1.60;;;;;;;25.97;21.48;95034.09;5453662;26;19994;-75
2024/04/10 09:31:49;;;;;;;8.20;1.80;;;;;;;26.25;21.54;95035.66;5485047;26;20022;-75
2024/04/10 09:34:22;;;;;;;3.00;1.60;;;;;;;26.50;20.41;95028.59;5485135;26;20026;-75
2024/04/10 09:36:47;;;;;;;3.83;1.85;;;;;;;26.70;20.27;95030.78;5483972;26;19994;-75
2024/04/10 09:39:17;;;;;;;3.90;1.60;;;;;;;26.93;19.26;95028.25;5482389;26;20429;-75
2024/04/10 09:41:44;;;;;;;6.35;1.50;;;;;;;27.10;18.81;95032.84;5484324;26;20005;-75
2024/04/10 09:44:10;;;;;;;6.18;1.45;;;;;;;27.32;19.51;95032.38;5483564;26;20002;-75
2024/04/10 09:46:37;;;;;;;5.38;1.60;;;;;;;27.51;18.70;95026.56;5453287;26;20425;-75
2024/04/10 09:49:10;;;;;;;3.17;1.38;;;;;;;27.77;19.05;95023.69;5451936;26;20489;-75
2024/04/10 09:51:41;;;;;;;2.28;1.23;;;;;;;27.95;17.53;95027.63;5480632;26;20013;-74
2024/04/10 09:54:11;;;;;;;4.22;1.40;;;;;;;28.12;17.59;95024.38;5483165;26;20000;-75
2024/04/10 09:56:39;;;;;;;4.03;1.30;;;;;;;28.29;17.49;95021.88;5480965;26;20001;-76
2024/04/10 09:59:12;;;;;;;3.65;1.50;;;;;;;28.49;17.91;95026.00;5483268;26;20080;-75
2024/04/10 10:01:38;;;;;;;2.67;1.33;;;;;;;28.59;17.12;95029.09;5481564;26;20022;-75
2024/04/10 10:04:03;;;;;;;5.00;1.30;;;;;;;28.78;17.51;95032.44;5485611;26;20013;-75
2024/04/10 10:06:30;;;;;;;8.27;2.38;;;;;;;29.04;17.22;95027.91;5483830;26;19994;-76
2024/04/10 10:08:56;;;;;;;38.63;5.25;;;;;;;29.26;16.79;95015.19;5483348;26;20054;-76
2024/04/10 10:11:22;;;;;;;4.63;1.30;;;;;;;29.52;16.29;95026.25;5483029;26;20006;-74
2024/04/10 10:14:02;;;;;;;3.38;1.50;;;;;;;29.80;15.88;95008.38;5481606;26;19998;-74
2024/04/10 10:16:30;;;;;;;4.38;1.10;;;;;;;30.07;15.58;95013.72;5482830;26;20342;-74
2024/04/10 10:18:56;;;;;;;3.97;1.42;;;;;;;30.24;15.44;95005.44;5481619;26;20078;-74
2024/04/10 10:21:23;;;;;;;4.07;1.75;;;;;;;30.47;15.64;94999.75;5484766;26;20002;-75
2024/04/10 10:24:14;;;;;;;15.77;3.30;;;;;;;30.75;15.12;95010.16;5482404;26;20093;-74
2024/04/10 10:26:40;;;;;;;5.65;1.75;;;;;;;31.04;14.72;95009.91;5481437;26;19998;-75
2024/04/10 10:29:07;;;;;;;6.78;2.10;;;;;;;31.37;14.40;95003.00;5484852;26;20328;-75
2024/04/10 10:31:34;;;;;;;8.90;2.30;;;;;;;31.73;14.27;95004.72;5481291;26;19995;-74
2024/04/10 10:34:10;;;;;;;2.80;1.17;;;;;;;32.02;13.48;94995.84;5483482;26;20429;-76
2024/04/10 10:36:36;;;;;;;6.60;1.60;;;;;;;32.31;13.55;94996.94;5481768;26;20010;-75
2024/04/10 10:39:13;;;;;;;7.70;2.17;;;;;;;32.63;13.17;94995.34;5483006;26;20074;-75
2024/04/10 10:41:39;;;;;;;3.10;1.70;;;;;;;32.92;12.98;94987.09;5482460;26;19994;-75
2024/04/10 10:44:04;;;;;;;4.15;2.00;;;;;;;33.25;12.96;94991.28;5481696;26;20016;-75
2024/04/10 10:46:29;;;;;;;2.22;1.20;;;;;;;33.68;11.87;94996.88;5482889;26;20005;-76
2024/04/10 10:48:55;;;;;;;1.50;0.77;;;;;;;34.17;10.07;94992.94;5450985;26;20063;-75
2024/04/10 10:51:23;;;;;;;7.25;1.70;;;;;;;34.73;10.37;94995.09;5482673;26;20100;-75
2024/04/10 10:53:48;;;;;;;5.20;1.08;;;;;;;35.26;10.41;94993.34;5481585;26;20456;-75
2024/04/10 10:56:22;;;;;;;3.47;1.00;;;;;;;35.81;10.06;94995.25;5452321;26;20078;-75
2024/04/10 10:58:48;;;;;;;3.47;1.20;;;;;;;36.42;9.53;94996.00;5482729;26;19998;-75
2024/04/10 11:01:14;;;;;;;4.65;1.52;;;;;;;36.98;8.78;94986.94;5482507;26;19994;-75
2024/04/10 11:03:39;;;;;;;4.43;1.38;;;;;;;37.71;8.30;94991.78;5484326;26;19998;-74
2024/04/10 11:06:11;;;;;;;4.05;0.80;;;;;;;38.35;7.76;94987.19;5482215;26;20028;-75
2024/04/10 11:08:37;;;;;;;;;;;;;;;38.98;7.57;94991.78;5452827;26;20058;-76
2024/04/10 11:11:04;;;;;;;3.30;1.00;;;;;;;39.61;7.61;94993.97;5482967;26;19924;-75
2024/04/10 11:13:29;;;;;;;2.22;0.85;;;;;;;40.17;7.68;94992.81;5482316;26;19994;-76
2024/04/10 11:15:57;;;;;;;3.55;1.13;;;;;;;40.65;6.94;94993.97;5483720;26;20078;-75
2024/04/10 11:18:23;;;;;;;4.43;1.08;;;;;;;41.11;6.42;94984.16;5482874;26;20427;-75
2024/04/10 11:20:51;;;;;;;3.35;1.10;;;;;;;41.53;6.47;94988.47;5452227;26;19994;-75
2024/04/10 11:23:16;;;;;;;2.63;0.90;;;;;;;41.58;6.28;94978.63;5450855;26;19990;-75
2024/04/10 11:25:42;;;;;;;3.78;1.05;;;;;;;40.73;5.86;94980.75;5452017;26;20006;-75
2024/04/10 11:28:08;;;;;;;3.13;0.77;;;;;;;39.49;6.47;94976.75;5480776;26;19994;-75